createdAt,value
2022-09-28T00:02:12.747Z,14.95
2022-09-28T00:04:42.270Z,16.83
2022-09-28T00:07:11.863Z,15.75
2022-09-28T00:09:40.085Z,19.33
2022-09-28T00:12:08.870Z,20.00
2022-09-28T00:14:37.647Z,19.15
2022-09-28T00:17:07.131Z,15.93
2022-09-28T00:19:35.482Z,15.40
2022-09-28T00:22:04.472Z,19.02
2022-09-28T00:24:34.230Z,17.00
2022-09-28T00:27:02.945Z,18.48
2022-09-28T00:29:34.901Z,21.58
2022-09-28T00:32:04.925Z,16.98
2022-09-28T00:34:35.301Z,22.75
2022-09-28T00:37:04.747Z,16.20
2022-09-28T00:39:33.183Z,19.98
2022-09-28T00:42:01.624Z,22.70
2022-09-28T00:44:58.921Z,17.75
2022-09-28T00:47:27.665Z,16.10
2022-09-28T00:50:02.705Z,17.33
2022-09-28T00:52:35.875Z,16.83
2022-09-28T00:55:05.984Z,19.40
2022-09-28T00:57:39.089Z,19.67
2022-09-28T01:00:08.018Z,21.70
2022-09-28T01:02:56.052Z,15.60
2022-09-28T01:05:25.495Z,19.67
2022-09-28T01:07:57.389Z,19.27
2022-09-28T01:10:28.678Z,20.90
2022-09-28T01:12:57.145Z,18.63
2022-09-28T01:15:29.109Z,20.13
2022-09-28T01:18:06.176Z,18.58
2022-09-28T01:20:42.522Z,19.52
2022-09-28T01:23:28.908Z,18.95
2022-09-28T01:26:16.019Z,24.10
2022-09-28T01:28:44.822Z,35.88
2022-09-28T01:31:12.936Z,29.55
2022-09-28T01:33:42.932Z,31.45
2022-09-28T01:36:26.174Z,21.00
2022-09-28T01:39:01.729Z,25.40
2022-09-28T01:41:31.570Z,26.77
2022-09-28T01:44:02.876Z,25.65
2022-09-28T01:46:35.585Z,24.35
2022-09-28T01:49:14.620Z,28.23
2022-09-28T01:51:46.220Z,30.50
2022-09-28T01:54:19.671Z,27.50
2022-09-28T01:56:53.872Z,33.22
2022-09-28T01:59:27.053Z,29.23
2022-09-28T02:01:58.526Z,28.75
2022-09-28T02:04:31.094Z,33.60
2022-09-28T02:07:03.242Z,39.00
2022-09-28T02:09:36.245Z,37.10
2022-09-28T02:12:09.768Z,33.65
2022-09-28T02:14:40.973Z,36.45
2022-09-28T02:17:10.377Z,40.60
2022-09-28T02:19:41.296Z,39.53
2022-09-28T02:22:26.536Z,37.15
2022-09-28T02:25:00.232Z,38.97
2022-09-28T02:27:31.746Z,38.47
2022-09-28T02:30:00.437Z,37.45
2022-09-28T02:32:32.738Z,42.30
2022-09-28T02:35:02.233Z,40.88
2022-09-28T02:37:32.682Z,43.92
2022-09-28T02:40:01.573Z,42.92
2022-09-28T02:42:39.389Z,40.10
2022-09-28T02:45:11.839Z,41.50
2022-09-28T02:47:48.313Z,43.92
2022-09-28T02:50:31.020Z,43.22
2022-09-28T02:53:17.989Z,39.00
2022-09-28T02:56:04.805Z,39.83
2022-09-28T02:58:39.043Z,47.15
2022-09-28T03:01:27.647Z,43.15
2022-09-28T03:04:02.151Z,59.42
2022-09-28T03:06:53.576Z,42.00
2022-09-28T03:09:24.247Z,39.00
2022-09-28T03:12:01.954Z,43.85
2022-09-28T03:14:31.187Z,43.70
2022-09-28T03:17:00.972Z,39.22
2022-09-28T03:19:36.709Z,46.58
2022-09-28T03:22:06.277Z,39.08
2022-09-28T03:24:35.154Z,40.92
2022-09-28T03:27:03.964Z,39.72
2022-09-28T03:29:34.430Z,44.35
2022-09-28T03:32:06.558Z,46.10
2022-09-28T03:34:35.594Z,44.45
2022-09-28T03:37:05.015Z,42.40
2022-09-28T03:39:33.916Z,43.67
2022-09-28T03:42:02.976Z,46.05
2022-09-28T03:44:34.976Z,43.67
2022-09-28T03:47:04.126Z,47.97
2022-09-28T03:49:33.142Z,44.10
2022-09-28T03:52:03.080Z,46.55
2022-09-28T03:54:32.379Z,47.88
2022-09-28T03:57:01.485Z,47.63
2022-09-28T03:59:31.976Z,50.75
2022-09-28T04:02:00.855Z,53.70
2022-09-28T04:04:33.955Z,56.35
2022-09-28T04:07:04.443Z,57.38
2022-09-28T04:09:36.112Z,55.60
2022-09-28T04:12:07.281Z,56.40
2022-09-28T04:14:41.652Z,62.75
2022-09-28T04:17:11.856Z,58.33
2022-09-28T04:19:42.682Z,66.03
2022-09-28T04:22:38.251Z,59.10
2022-09-28T04:25:07.497Z,67.03
2022-09-28T04:27:55.821Z,65.60
2022-09-28T04:30:24.675Z,57.70
2022-09-28T04:33:13.312Z,64.90
2022-09-28T04:35:44.984Z,61.58
2022-09-28T04:38:14.940Z,68.30
2022-09-28T04:40:43.843Z,64.78
2022-09-28T04:43:15.232Z,68.47
2022-09-28T04:45:45.138Z,75.82
2022-09-28T04:48:14.969Z,64.95
2022-09-28T04:51:04.088Z,69.70
2022-09-28T04:53:35.117Z,71.28
2022-09-28T04:56:07.867Z,69.50
2022-09-28T04:58:39.161Z,71.13
2022-09-28T05:01:09.416Z,76.75
2022-09-28T05:03:56.462Z,71.78
2022-09-28T05:06:37.232Z,76.88
2022-09-28T05:09:09.354Z,70.68
2022-09-28T05:11:38.053Z,69.85
2022-09-28T05:14:12.801Z,61.42
2022-09-28T05:16:42.758Z,69.28
2022-09-28T05:19:36.990Z,79.65
2022-09-28T05:22:11.308Z,79.03
2022-09-28T05:24:43.313Z,69.88
2022-09-28T05:27:12.057Z,71.88
2022-09-28T05:29:40.441Z,76.43
2022-09-28T05:33:06.625Z,75.88
2022-09-28T05:35:44.271Z,76.35
2022-09-28T05:38:13.299Z,74.72
2022-09-28T05:40:42.693Z,73.30
2022-09-28T05:43:12.669Z,70.35
2022-09-28T05:45:41.264Z,72.70
2022-09-28T05:48:10.846Z,71.00
2022-09-28T05:50:43.528Z,78.63
2022-09-28T05:53:16.547Z,82.72
2022-09-28T05:55:45.532Z,76.50
2022-09-28T05:58:16.620Z,72.35
2022-09-28T06:00:45.171Z,71.47
2022-09-28T06:03:22.483Z,79.90
2022-09-28T06:05:51.068Z,71.10
2022-09-28T06:08:19.965Z,69.82
2022-09-28T06:10:59.824Z,72.70
2022-09-28T06:13:30.051Z,69.78
2022-09-28T06:15:59.580Z,65.60
2022-09-28T06:18:31.732Z,70.07
2022-09-28T06:21:16.321Z,67.35
2022-09-28T06:23:49.332Z,68.88
2022-09-28T06:26:19.762Z,68.20
2022-09-28T06:28:48.460Z,68.68
2022-09-28T06:31:19.863Z,61.72
2022-09-28T06:33:51.819Z,41.60
2022-09-28T06:36:21.004Z,62.10
2022-09-28T06:38:51.208Z,66.47
2022-09-28T06:41:21.773Z,65.75
2022-09-28T06:43:50.156Z,66.10
2022-09-28T06:46:39.285Z,58.28
2022-09-28T06:49:30.247Z,54.70
2022-09-28T06:52:19.903Z,57.15
2022-09-28T06:55:15.116Z,59.35
2022-09-28T06:57:47.887Z,62.97
2022-09-28T07:00:19.181Z,56.78
2022-09-28T07:03:09.261Z,55.33
2022-09-28T07:05:57.761Z,61.72
2022-09-28T07:09:27.758Z,59.35
2022-09-28T07:12:23.141Z,63.20
2022-09-28T07:15:07.246Z,51.95
2022-09-28T07:17:56.348Z,54.50
2022-09-28T07:20:29.996Z,55.33
2022-09-28T07:23:17.182Z,53.22
2022-09-28T07:26:09.186Z,51.85
2022-09-28T07:28:51.272Z,51.70
2022-09-28T07:31:37.424Z,56.75
2022-09-28T07:34:24.591Z,56.65
2022-09-28T07:37:09.873Z,52.85
2022-09-28T07:39:53.215Z,50.63
2022-09-28T07:44:52.719Z,51.53
2022-09-28T07:47:30.849Z,51.55
2022-09-28T07:50:21.238Z,56.67
2022-09-28T07:53:11.120Z,52.35
2022-09-28T07:56:13.952Z,51.50
2022-09-28T07:58:50.406Z,45.35
2022-09-28T08:01:38.246Z,49.35
2022-09-28T08:04:07.131Z,49.00
2022-09-28T08:06:40.407Z,41.20
2022-09-28T08:09:11.355Z,50.13
2022-09-28T08:11:59.578Z,44.97
2022-09-28T08:18:01.978Z,50.03
2022-09-28T08:20:52.924Z,47.58
2022-09-28T08:23:24.750Z,46.58
2022-09-28T08:25:54.958Z,52.03
2022-09-28T08:28:26.474Z,48.35
2022-09-28T08:31:00.578Z,45.00
2022-09-28T08:34:01.040Z,49.08
2022-09-28T08:36:48.537Z,47.15
2022-09-28T08:39:56.075Z,48.28
2022-09-28T08:42:56.194Z,45.25
2022-09-28T08:45:44.893Z,44.88
2022-09-28T08:49:01.263Z,42.92
2022-09-28T08:52:14.838Z,40.78
2022-09-28T08:55:45.214Z,39.33
2022-09-28T08:58:43.617Z,39.17
2022-09-28T09:01:16.660Z,46.60
2022-09-28T09:03:49.599Z,38.35
2022-09-28T09:06:37.156Z,39.45
2022-09-28T09:09:34.557Z,49.80
2022-09-28T09:12:02.501Z,40.80
2022-09-28T09:14:40.059Z,40.88
2022-09-28T09:17:18.481Z,35.83
2022-09-28T09:20:21.647Z,31.77
2022-09-28T09:23:08.925Z,45.97
2022-09-28T09:25:47.968Z,44.17
2022-09-28T09:28:22.158Z,42.03
2022-09-28T09:31:22.422Z,34.05
2022-09-28T09:33:52.154Z,37.10
2022-09-28T09:37:05.013Z,38.58
2022-09-28T09:40:18.024Z,45.42
2022-09-28T09:43:17.347Z,41.78
2022-09-28T09:45:57.276Z,38.30
2022-09-28T09:48:49.856Z,43.03
2022-09-28T09:51:36.820Z,45.42
2022-09-28T09:54:07.293Z,45.95
2022-09-28T09:56:39.078Z,37.83
2022-09-28T09:59:24.038Z,44.17
2022-09-28T10:02:26.244Z,43.40
2022-09-28T10:05:13.766Z,39.47
2022-09-28T10:07:52.979Z,35.80
2022-09-28T10:10:29.148Z,31.40
2022-09-28T10:13:16.680Z,35.97
2022-09-28T10:15:47.556Z,28.27
2022-09-28T10:18:37.633Z,32.60
2022-09-28T10:21:24.761Z,34.45
2022-09-28T10:24:02.611Z,30.55
2022-09-28T10:26:38.266Z,30.60
2022-09-28T10:29:22.760Z,30.58
2022-09-28T10:31:58.513Z,23.10
2022-09-28T10:34:33.336Z,25.52
2022-09-28T10:37:10.887Z,29.30
2022-09-28T10:40:04.496Z,24.40
2022-09-28T10:42:37.606Z,27.85
2022-09-28T10:45:13.802Z,26.02
2022-09-28T10:47:45.440Z,28.13
2022-09-28T10:50:21.414Z,29.52
2022-09-28T10:52:52.072Z,24.52
2022-09-28T10:56:00.532Z,28.80
2022-09-28T10:58:32.585Z,29.10
2022-09-28T11:01:12.287Z,26.38
2022-09-28T11:03:52.980Z,35.40
2022-09-28T11:06:25.998Z,30.98
2022-09-28T11:09:04.945Z,30.92
2022-09-28T11:11:41.612Z,26.80
2022-09-28T11:14:22.399Z,24.13
2022-09-28T11:17:10.686Z,25.80
2022-09-28T11:19:39.986Z,27.17
2022-09-28T11:22:36.812Z,22.63
2022-09-28T11:25:17.250Z,24.27
2022-09-28T11:27:51.912Z,17.33
2022-09-28T11:30:32.902Z,16.27
2022-09-28T11:33:24.996Z,12.25
2022-09-28T11:36:17.005Z,18.70
2022-09-28T11:38:47.357Z,11.07
2022-09-28T11:42:01.740Z,16.55
2022-09-28T11:44:41.306Z,10.50
2022-09-28T11:47:33.512Z,14.02
2022-09-28T11:50:04.253Z,13.38
2022-09-28T11:52:51.575Z,11.63
2022-09-28T11:55:22.872Z,13.75
2022-09-28T11:57:58.454Z,10.40
2022-09-28T12:00:28.349Z,8.90
2022-09-28T12:03:29.475Z,8.98
2022-09-28T12:06:01.812Z,8.13
2022-09-28T12:08:32.808Z,7.55
2022-09-28T12:11:04.033Z,12.85
2022-09-28T12:14:00.906Z,9.18
2022-09-28T12:17:04.263Z,8.65
2022-09-28T12:19:33.162Z,8.30
2022-09-28T12:22:06.211Z,8.15
2022-09-28T12:24:38.796Z,8.48
2022-09-28T12:27:12.414Z,8.02
2022-09-28T12:29:47.468Z,8.52
2022-09-28T12:32:37.390Z,7.72
2022-09-28T12:35:12.915Z,7.53
2022-09-28T12:37:41.680Z,18.52
2022-09-28T12:40:26.907Z,10.65
2022-09-28T12:43:07.238Z,7.00
2022-09-28T12:46:06.686Z,9.48
2022-09-28T12:48:41.265Z,12.23
2022-09-28T12:51:37.039Z,7.18
2022-09-28T12:54:05.000Z,7.82
2022-09-28T12:56:53.636Z,8.48
2022-09-28T12:59:32.964Z,11.43
2022-09-28T13:02:01.325Z,7.70
2022-09-28T13:04:46.346Z,7.50
2022-09-28T13:07:29.420Z,7.67
2022-09-28T13:10:07.126Z,8.07
2022-09-28T13:12:49.400Z,12.20
2022-09-28T13:15:24.713Z,12.48
2022-09-28T13:18:04.047Z,7.15
2022-09-28T13:20:46.641Z,6.90
2022-09-28T13:23:18.532Z,9.60
2022-09-28T13:25:57.564Z,6.07
2022-09-28T13:28:27.402Z,5.57
2022-09-28T13:30:57.033Z,8.48
2022-09-28T13:33:36.658Z,5.22
2022-09-28T13:36:24.922Z,6.68
2022-09-28T13:38:53.944Z,5.97
2022-09-28T13:41:23.373Z,7.13
2022-09-28T13:43:52.891Z,6.50
2022-09-28T13:46:39.644Z,9.95
2022-09-28T13:49:18.385Z,31.58
2022-09-28T13:52:05.075Z,11.15
2022-09-28T13:54:41.807Z,14.65
2022-09-28T13:57:25.346Z,10.07
2022-09-28T13:59:53.501Z,10.10
2022-09-28T14:02:29.947Z,9.95
2022-09-28T14:05:00.019Z,8.88
2022-09-28T14:10:20.808Z,9.05
2022-09-28T14:12:50.250Z,13.40
2022-09-28T14:15:30.645Z,9.55
2022-09-28T14:18:10.703Z,7.90
2022-09-28T14:20:38.807Z,9.02
2022-09-28T14:23:13.068Z,18.60
2022-09-28T14:25:45.874Z,6.60
2022-09-28T14:28:23.173Z,7.57
2022-09-28T14:30:53.279Z,5.40
2022-09-28T14:33:21.300Z,9.82
2022-09-28T14:35:57.452Z,6.13
2022-09-28T14:38:47.222Z,6.88
2022-09-28T14:41:28.239Z,8.07
2022-09-28T14:43:59.165Z,10.65
2022-09-28T14:46:30.505Z,6.72
2022-09-28T14:49:03.878Z,19.25
2022-09-28T14:51:33.803Z,12.85
2022-09-28T14:54:11.017Z,15.73
2022-09-28T14:56:59.645Z,9.55
2022-09-28T14:59:36.107Z,7.88
2022-09-28T15:02:28.941Z,9.10
2022-09-28T15:05:01.564Z,10.10
2022-09-28T15:07:49.489Z,12.77
2022-09-28T15:10:27.875Z,10.57
2022-09-28T15:12:58.108Z,8.52
2022-09-28T15:15:38.518Z,5.10
2022-09-28T15:18:07.700Z,3.95
2022-09-28T15:20:41.596Z,4.65
2022-09-28T15:23:24.725Z,6.93
2022-09-28T15:25:53.487Z,8.13
2022-09-28T15:28:24.472Z,10.00
2022-09-28T15:31:04.504Z,13.05
2022-09-28T15:33:59.256Z,11.13
2022-09-28T15:36:32.815Z,14.35
2022-09-28T15:39:07.499Z,29.95
2022-09-28T15:41:36.116Z,35.30
2022-09-28T15:44:18.453Z,26.77
2022-09-28T15:46:48.765Z,26.80
2022-09-28T15:49:38.963Z,25.58
2022-09-28T15:52:07.615Z,18.75
2022-09-28T15:54:44.325Z,16.13
2022-09-28T15:57:34.217Z,16.65
2022-09-28T16:00:02.986Z,7.20
2022-09-28T16:03:05.565Z,5.07
2022-09-28T16:05:54.190Z,7.20
2022-09-28T16:08:24.917Z,6.00
2022-09-28T16:10:57.966Z,6.93
2022-09-28T16:13:26.497Z,6.57
2022-09-28T16:15:58.097Z,3.90
2022-09-28T16:18:28.593Z,6.93
2022-09-28T16:21:24.389Z,13.40
2022-09-28T16:23:55.654Z,18.30
2022-09-28T16:26:33.098Z,4.60
2022-09-28T16:29:07.669Z,4.65
2022-09-28T16:31:36.780Z,6.35
2022-09-28T16:34:11.425Z,5.03
2022-09-28T16:36:43.380Z,9.48
2022-09-28T16:39:12.418Z,7.30
2022-09-28T16:41:44.125Z,5.43
2022-09-28T16:44:25.784Z,7.78
2022-09-28T16:47:00.184Z,6.00
2022-09-28T16:49:40.253Z,5.57
2022-09-28T16:52:35.217Z,6.00
2022-09-28T16:55:40.531Z,5.97
2022-09-28T16:58:06.630Z,6.57
2022-09-28T17:00:34.900Z,4.53
2022-09-28T17:03:23.510Z,6.85
2022-09-28T17:05:52.764Z,5.15
2022-09-28T17:08:22.909Z,5.25
2022-09-28T17:13:45.104Z,6.07
2022-09-28T17:16:17.785Z,66.53
2022-09-28T17:18:46.904Z,9.43
2022-09-28T17:21:18.638Z,13.27
2022-09-28T17:23:50.304Z,8.70
2022-09-28T17:26:27.235Z,10.32
2022-09-28T17:28:55.988Z,7.53
2022-09-28T17:31:24.384Z,10.88
2022-09-28T17:33:54.459Z,8.68
2022-09-28T17:36:26.937Z,6.80
2022-09-28T17:38:58.372Z,7.95
2022-09-28T17:41:31.271Z,8.15
2022-09-28T17:44:00.691Z,18.77
2022-09-28T17:46:35.477Z,6.45
2022-09-28T17:49:05.906Z,11.90
2022-09-28T17:51:38.225Z,6.20
2022-09-28T17:54:07.994Z,6.35
2022-09-28T17:56:38.465Z,7.57
2022-09-28T17:59:08.328Z,13.15
2022-09-28T18:01:42.185Z,14.15
2022-09-28T18:04:33.318Z,11.93
2022-09-28T18:07:03.780Z,9.23
2022-09-28T18:09:32.552Z,8.55
2022-09-28T18:12:05.524Z,13.27
2022-09-28T18:17:05.424Z,14.38
2022-09-28T18:19:35.961Z,13.85
2022-09-28T18:22:05.443Z,11.05
2022-09-28T18:24:38.097Z,8.98
2022-09-28T18:27:07.055Z,16.55
2022-09-28T18:29:35.816Z,14.20
2022-09-28T18:32:05.218Z,12.40
2022-09-28T18:34:38.288Z,7.10
2022-09-28T18:37:07.107Z,5.28
2022-09-28T18:39:36.244Z,5.15
2022-09-28T18:42:04.975Z,5.13
2022-09-28T18:44:35.030Z,4.10
2022-09-28T18:47:03.652Z,4.40
2022-09-28T18:49:33.607Z,6.38
2022-09-28T18:52:03.507Z,5.57
2022-09-28T18:54:41.537Z,5.10
2022-09-28T18:57:11.623Z,4.03
2022-09-28T18:59:41.736Z,4.22
2022-09-28T19:02:11.630Z,4.28
2022-09-28T19:04:42.775Z,4.35
2022-09-28T19:07:12.733Z,4.97
2022-09-28T19:09:44.095Z,6.38
2022-09-28T19:12:13.487Z,5.63
2022-09-28T19:14:43.310Z,5.20
2022-09-28T19:17:13.750Z,6.50
2022-09-28T19:19:43.168Z,9.10
2022-09-28T19:22:13.209Z,14.27
2022-09-28T19:24:42.737Z,9.82
2022-09-28T19:27:11.565Z,12.90
2022-09-28T19:29:40.402Z,13.20
2022-09-28T19:32:09.190Z,13.73
2022-09-28T19:34:39.738Z,15.88
2022-09-28T19:37:08.713Z,17.95
2022-09-28T19:39:38.865Z,19.17
2022-09-28T19:42:10.376Z,20.67
2022-09-28T19:44:39.930Z,20.45
2022-09-28T19:47:11.527Z,21.48
2022-09-28T19:49:41.370Z,25.58
2022-09-28T19:52:15.639Z,23.90
2022-09-28T19:54:46.123Z,22.13
2022-09-28T19:57:15.974Z,22.10
2022-09-28T19:59:50.664Z,25.77
2022-09-28T20:02:22.020Z,20.55
2022-09-28T20:04:51.393Z,26.98
2022-09-28T20:07:19.814Z,24.77
2022-09-28T20:09:48.309Z,24.50
2022-09-28T20:12:17.756Z,27.38
2022-09-28T20:14:47.461Z,28.70
2022-09-28T20:17:15.938Z,24.77
2022-09-28T20:19:44.849Z,26.67
2022-09-28T20:22:13.469Z,26.00
2022-09-28T20:24:42.429Z,24.77
2022-09-28T20:27:11.179Z,23.98
2022-09-28T20:29:39.592Z,32.95
2022-09-28T20:32:09.133Z,27.10
2022-09-28T20:34:39.043Z,27.70
2022-09-28T20:37:08.628Z,30.38
2022-09-28T20:39:40.414Z,29.13
2022-09-28T20:42:14.283Z,29.90
2022-09-28T20:44:44.360Z,33.38
2022-09-28T20:47:16.156Z,32.55
2022-09-28T20:49:47.494Z,33.10
2022-09-28T20:52:17.166Z,31.98
2022-09-28T20:54:46.207Z,31.45
2022-09-28T20:57:19.994Z,34.15
2022-09-28T20:59:53.772Z,30.27
2022-09-28T21:02:24.115Z,31.95
2022-09-28T21:04:55.234Z,40.25
2022-09-28T21:07:24.431Z,37.20
2022-09-28T21:09:53.570Z,36.75
2022-09-28T21:12:25.922Z,33.88
2022-09-28T21:14:58.806Z,38.45
2022-09-28T21:17:33.005Z,35.67
2022-09-28T21:20:02.429Z,42.63
2022-09-28T21:22:49.892Z,37.17
2022-09-28T21:25:19.029Z,39.85
2022-09-28T21:27:47.992Z,40.17
2022-09-28T21:30:19.936Z,42.40
2022-09-28T21:33:07.465Z,32.95
2022-09-28T21:35:38.904Z,35.63
2022-09-28T21:38:09.052Z,33.83
2022-09-28T21:40:39.351Z,35.35
2022-09-28T21:43:13.240Z,33.20
2022-09-28T21:45:41.653Z,36.00
2022-09-28T21:48:14.660Z,39.77
2022-09-28T21:50:42.973Z,32.03
2022-09-28T21:53:14.372Z,37.17
2022-09-28T21:55:45.769Z,28.48
2022-09-28T21:58:14.988Z,33.53
2022-09-28T22:00:44.485Z,30.70
2022-09-28T22:03:31.308Z,37.70
2022-09-28T22:06:00.795Z,33.67
2022-09-28T22:08:36.582Z,35.97
2022-09-28T22:11:07.669Z,30.83
2022-09-28T22:13:37.930Z,32.33
2022-09-28T22:16:08.234Z,36.13
2022-09-28T22:18:40.807Z,33.20
2022-09-28T22:21:11.583Z,35.08
2022-09-28T22:23:42.059Z,30.98
2022-09-28T22:26:17.974Z,31.40
2022-09-28T22:28:49.543Z,30.90
2022-09-28T22:31:20.022Z,33.97
2022-09-28T22:33:50.638Z,36.75
2022-09-28T22:36:19.876Z,34.03
2022-09-28T22:38:48.849Z,34.38
2022-09-28T22:41:20.416Z,35.75
2022-09-28T22:43:51.257Z,32.45
2022-09-28T22:46:22.497Z,32.63
2022-09-28T22:48:52.549Z,32.67
2022-09-28T22:51:23.791Z,35.67
2022-09-28T22:53:54.564Z,31.63
2022-09-28T22:56:23.129Z,35.65
2022-09-28T22:58:51.977Z,29.17
2022-09-28T23:01:22.914Z,34.50
2022-09-28T23:03:55.611Z,34.53
2022-09-28T23:06:25.896Z,38.45
2022-09-28T23:08:54.380Z,32.92
2022-09-28T23:11:23.407Z,37.53
2022-09-28T23:13:52.506Z,31.25
2022-09-28T23:16:26.506Z,32.28
2022-09-28T23:18:56.298Z,33.30
2022-09-28T23:21:26.636Z,32.47
2022-09-28T23:23:59.512Z,27.63
2022-09-28T23:26:29.631Z,33.33
2022-09-28T23:28:59.997Z,30.80
2022-09-28T23:31:30.921Z,33.15
2022-09-28T23:34:03.178Z,29.20
2022-09-28T23:36:33.334Z,33.17
2022-09-28T23:39:02.677Z,28.02
2022-09-28T23:41:33.330Z,30.20
2022-09-28T23:44:03.434Z,34.67
2022-09-28T23:46:34.565Z,30.85
2022-09-28T23:49:03.968Z,33.67
2022-09-28T23:51:33.977Z,29.67
2022-09-28T23:54:05.112Z,28.40
2022-09-28T23:56:35.897Z,26.17
2022-09-28T23:59:04.933Z,33.78
